Time;durP1;ratioP1;P1;durP2;ratioP2;P2;SDS_P1;SDS_P2;PMS_P1;PMS_P2;Temp;Humidity;BMP_temperature;BMP_pressure;BME280_temperature;BME280_humidity;BME280_pressure;Samples;Min_cycle;Max_cycle;Signal;HPM_P1;HPM_P2
2022/07/23 00:00:30;;;;;;;6.28;4.90;;;;;;;16.36;74.92;101765.09;5043641;28;20032;-73
2022/07/23 00:02:55;;;;;;;4.82;4.35;;;;;;;16.33;75.03;101765.19;5053014;28;20100;-73
2022/07/23 00:05:21;;;;;;;6.63;4.70;;;;;;;16.31;74.97;101759.97;5057052;28;20043;-73
2022/07/23 00:07:46;;;;;;;4.60;2.60;;;;;;;16.26;75.05;101758.44;5056411;28;20020;-73
2022/07/23 00:10:11;;;;;;;3.28;2.30;;;;;;;16.24;75.23;101769.84;5064335;28;20033;-73
2022/07/23 00:12:37;;;;;;;4.57;2.80;;;;;;;16.19;75.22;101766.53;5061735;28;20024;-73
2022/07/23 00:15:04;;;;;;;5.35;2.85;;;;;;;16.13;74.97;101764.09;5062152;28;20035;-73
2022/07/23 00:17:29;;;;;;;4.57;2.50;;;;;;;16.11;75.51;101758.06;5064421;28;20036;-73
2022/07/23 00:19:55;;;;;;;4.25;2.75;;;;;;;16.10;75.35;101761.59;5057808;28;20025;-73
2022/07/23 00:22:20;;;;;;;3.85;2.60;;;;;;;16.05;75.31;101760.91;5053515;28;20037;-73
2022/07/23 00:24:46;;;;;;;4.85;3.00;;;;;;;16.00;75.41;101757.56;5055068;28;20033;-73
2022/07/23 00:27:11;;;;;;;4.30;2.88;;;;;;;15.97;75.54;101762.91;5049480;28;20035;-73
2022/07/23 00:29:36;;;;;;;4.15;2.72;;;;;;;15.91;75.74;101762.22;5048019;28;20071;-73
2022/07/23 00:32:02;;;;;;;4.72;2.80;;;;;;;15.90;75.76;101771.00;5050782;28;20399;-73
2022/07/23 00:34:27;;;;;;;3.40;2.50;;;;;;;15.87;75.59;101768.50;5050406;28;20078;-73
2022/07/23 00:36:53;;;;;;;4.50;2.63;;;;;;;15.82;75.29;101759.88;5053235;28;20041;-73
2022/07/23 00:39:21;;;;;;;4.07;2.70;;;;;;;15.78;75.58;101758.25;5040198;28;21304;-73
2022/07/23 00:41:47;;;;;;;3.72;2.38;;;;;;;15.78;75.84;101753.00;5056558;28;20464;-73
2022/07/23 00:44:27;;;;;;;4.32;2.53;;;;;;;15.75;75.12;101753.97;5059250;28;20059;-73
2022/07/23 00:46:57;;;;;;;3.53;2.58;;;;;;;15.70;75.69;101761.13;5056863;28;20055;-73
2022/07/23 00:49:24;;;;;;;5.22;2.60;;;;;;;15.67;75.68;101752.50;5059162;28;20091;-73
2022/07/23 00:51:50;;;;;;;6.00;2.60;;;;;;;15.64;75.85;101756.06;5061078;28;20063;-74
2022/07/23 00:54:17;;;;;;;4.63;2.70;;;;;;;15.61;75.69;101761.44;5063581;28;20024;-73
2022/07/23 00:56:44;;;;;;;4.18;2.55;;;;;;;15.59;75.82;101758.84;5057052;28;20037;-73
2022/07/23 00:59:09;;;;;;;4.43;2.58;;;;;;;15.60;75.69;101750.06;5061859;28;20095;-73
2022/07/23 01:01:35;;;;;;;4.15;2.47;;;;;;;15.59;76.19;101752.75;5053837;28;20464;-73
2022/07/23 01:04:00;;;;;;;7.38;2.65;;;;;;;15.56;76.46;101752.84;5054477;28;20051;-74
2022/07/23 01:06:25;;;;;;;4.18;2.40;;;;;;;15.54;76.33;101758.13;5066691;28;20048;-73
2022/07/23 01:08:52;;;;;;;4.72;2.67;;;;;;;15.52;76.44;101757.34;5060662;28;20056;-73
2022/07/23 01:11:18;;;;;;;3.40;2.60;;;;;;;15.49;76.58;101757.44;5061402;28;20028;-73
2022/07/23 01:13:43;;;;;;;4.65;2.50;;;;;;;15.49;76.55;101749.56;5059752;28;20025;-73
2022/07/23 01:16:09;;;;;;;4.32;2.72;;;;;;;15.49;76.42;101754.81;5057076;28;20121;-73
2022/07/23 01:18:34;;;;;;;4.40;3.00;;;;;;;15.46;76.40;101752.28;5056072;28;20507;-72
2022/07/23 01:20:59;;;;;;;4.75;2.80;;;;;;;15.46;76.24;101752.28;5056231;28;20055;-73
2022/07/23 01:23:25;;;;;;;3.38;2.72;;;;;;;15.43;76.05;101739.25;5059351;28;20028;-73
2022/07/23 01:25:54;;;;;;;4.07;2.78;;;;;;;15.42;76.34;101738.41;5056508;28;20029;-73
2022/07/23 01:28:19;;;;;;;4.90;3.03;;;;;;;15.39;76.13;101732.41;5038944;28;20029;-73
2022/07/23 01:30:45;;;;;;;5.88;2.97;;;;;;;15.33;76.56;101742.19;5066108;28;20411;-73
2022/07/23 01:33:11;;;;;;;4.25;2.80;;;;;;;15.32;76.88;101743.09;5040179;28;20459;-73
2022/07/23 01:35:36;;;;;;;4.20;2.90;;;;;;;15.30;77.03;101737.03;5063079;28;20028;-73
2022/07/23 01:38:01;;;;;;;4.93;3.15;;;;;;;15.29;77.05;101745.81;5052830;28;20056;-74
2022/07/23 01:40:27;;;;;;;5.60;3.17;;;;;;;15.25;77.26;101749.41;5061795;28;20040;-73
2022/07/23 01:42:52;;;;;;;3.92;3.20;;;;;;;15.21;77.29;101747.78;5060702;28;20021;-72
2022/07/23 01:45:17;;;;;;;4.10;2.95;;;;;;;15.21;77.11;101752.19;5057127;28;20020;-73
2022/07/23 01:47:43;;;;;;;4.43;2.88;;;;;;;15.19;77.09;101749.63;5055651;28;20493;-73
2022/07/23 01:50:08;;;;;;;4.85;2.65;;;;;;;15.17;76.75;101738.31;5058879;28;20051;-73
2022/07/23 01:52:34;;;;;;;4.88;2.78;;;;;;;15.14;76.82;101735.78;5057129;28;20029;-73
2022/07/23 01:54:59;;;;;;;3.38;2.90;;;;;;;15.11;77.19;101734.13;5060683;28;20039;-73
2022/07/23 01:57:24;;;;;;;4.55;2.90;;;;;;;15.08;77.21;101741.22;5057650;28;20457;-72
2022/07/23 01:59:49;;;;;;;5.13;3.05;;;;;;;15.04;77.28;101743.06;5056556;28;20064;-73
2022/07/23 02:02:15;;;;;;;3.50;2.83;;;;;;;15.03;77.75;101742.19;5053165;28;20024;-73
2022/07/23 02:04:40;;;;;;;5.35;2.90;;;;;;;15.02;77.69;101732.66;5037006;28;20021;-72
2022/07/23 02:07:06;;;;;;;3.65;2.80;;;;;;;15.01;77.02;101738.81;5060454;28;20029;-72
2022/07/23 02:09:32;;;;;;;5.40;3.10;;;;;;;15.00;77.15;101734.47;5060496;28;20024;-73
2022/07/23 02:11:57;;;;;;;4.40;3.15;;;;;;;14.96;77.18;101735.44;5059151;28;20106;-73
2022/07/23 02:14:23;;;;;;;5.13;3.28;;;;;;;14.95;76.96;101738.97;5064121;28;20643;-73
2022/07/23 02:16:48;;;;;;;4.93;3.20;;;;;;;14.89;77.77;101731.28;5061283;28;20387;-73
2022/07/23 02:19:13;;;;;;;4.03;2.70;;;;;;;14.86;77.79;101731.38;5061514;28;20157;-73
2022/07/23 02:21:38;;;;;;;3.28;2.63;;;;;;;14.85;77.48;101732.28;5062087;28;20482;-73
2022/07/23 02:24:04;;;;;;;5.00;3.03;;;;;;;14.82;77.57;101729.75;5058253;28;20027;-73
2022/07/23 02:26:32;;;;;;;4.10;2.90;;;;;;;14.80;77.64;101732.41;5059521;28;20073;-73
2022/07/23 02:28:57;;;;;;;3.30;2.97;;;;;;;14.77;77.68;101729.03;5063388;28;20033;-73
2022/07/23 02:31:22;;;;;;;4.90;3.33;;;;;;;14.74;77.80;101726.50;5064111;28;20036;-72
2022/07/23 02:33:48;;;;;;;4.38;3.17;;;;;;;14.70;77.68;101720.50;5067037;28;20399;-73
2022/07/23 02:36:13;;;;;;;4.40;3.42;;;;;;;14.68;77.82;101717.94;5063215;28;20116;-73
2022/07/23 02:38:38;;;;;;;4.40;3.42;;;;;;;14.64;78.06;101721.50;5060126;28;20391;-72
2022/07/23 02:41:04;;;;;;;5.97;2.97;;;;;;;14.62;78.34;101723.31;5057445;28;20041;-73
2022/07/23 02:43:29;;;;;;;4.43;2.90;;;;;;;14.62;78.26;101722.44;5059871;28;20028;-73
2022/07/23 02:45:54;;;;;;;4.30;3.00;;;;;;;14.60;78.37;101727.72;5058726;28;20079;-73
2022/07/23 02:48:19;;;;;;;3.53;2.90;;;;;;;14.60;78.42;101730.34;5059055;28;20027;-73
2022/07/23 02:50:45;;;;;;;3.17;2.42;;;;;;;14.57;78.21;101730.41;5060628;28;20078;-73
2022/07/23 02:53:10;;;;;;;2.80;2.22;;;;;;;14.51;77.31;101733.22;5063780;28;20035;-73
2022/07/23 02:55:35;;;;;;;3.70;2.80;;;;;;;14.50;78.06;101734.13;5063010;28;20089;-73
2022/07/23 02:58:01;;;;;;;13.88;3.35;;;;;;;14.50;78.79;101731.50;5065391;28;20024;-73
2022/07/23 03:00:26;;;;;;;4.47;3.10;;;;;;;14.48;78.90;101739.41;5063859;28;20380;-73
2022/07/23 03:02:51;;;;;;;5.32;3.10;;;;;;;14.46;78.99;101735.94;5057527;28;20025;-73
2022/07/23 03:05:17;;;;;;;4.07;3.10;;;;;;;14.45;78.62;101741.25;5060167;28;20094;-73
2022/07/23 03:07:42;;;;;;;5.30;2.90;;;;;;;14.46;78.39;101732.50;5059766;28;20044;-73
2022/07/23 03:10:08;;;;;;;3.72;2.83;;;;;;;14.46;78.24;101737.72;5063270;28;20029;-73
2022/07/23 03:12:33;;;;;;;4.38;2.90;;;;;;;14.41;78.30;101741.31;5060119;28;20678;-73
2022/07/23 03:14:58;;;;;;;4.65;3.33;;;;;;;14.38;78.63;101746.63;5063978;28;20124;-73
2022/07/23 03:17:24;;;;;;;6.43;2.88;;;;;;;14.37;78.79;101759.78;5068285;28;20454;-73
2022/07/23 03:19:49;;;;;;;3.85;3.08;;;;;;;14.34;78.70;101752.88;5063528;28;20119;-73
2022/07/23 03:22:14;;;;;;;4.22;2.85;;;;;;;14.33;78.63;101753.78;5064217;28;20055;-72
2022/07/23 03:24:54;;;;;;;4.45;2.75;;;;;;;14.33;78.32;101758.13;5060857;28;20386;-73
2022/07/23 03:27:21;;;;;;;4.85;2.72;;;;;;;14.31;77.94;101750.34;5056179;28;20082;-73
2022/07/23 03:29:46;;;;;;;5.30;2.58;;;;;;;14.29;77.65;101746.91;5057306;28;20992;-72
2022/07/23 03:32:12;;;;;;;3.58;2.75;;;;;;;14.28;77.60;101745.19;5061091;28;20151;-72
2022/07/23 03:34:38;;;;;;;4.63;2.88;;;;;;;14.24;77.56;101754.00;5063466;28;20040;-73
2022/07/23 03:37:04;;;;;;;4.82;3.25;;;;;;;14.18;78.45;101746.31;5065254;28;20028;-73
2022/07/23 03:39:29;;;;;;;4.82;3.30;;;;;;;14.15;78.70;101754.25;5066306;28;20050;-72
2022/07/23 03:41:55;;;;;;;5.90;3.30;;;;;;;14.13;79.07;101748.22;5065060;28;20632;-72
2022/07/23 03:44:20;;;;;;;4.53;3.17;;;;;;;14.09;79.24;101753.50;5056066;28;20496;-73
2022/07/23 03:46:45;;;;;;;5.13;3.30;;;;;;;14.06;79.27;101750.97;5065560;28;20081;-73
2022/07/23 03:49:10;;;;;;;3.67;2.80;;;;;;;14.07;79.20;101757.94;5058515;28;20116;-73
2022/07/23 03:51:36;;;;;;;4.10;3.30;;;;;;;14.05;79.16;101756.25;5055278;28;20059;-73
2022/07/23 03:54:01;;;;;;;4.60;3.10;;;;;;;14.03;79.06;101758.91;5058759;28;20082;-73
2022/07/23 03:56:26;;;;;;;6.00;3.10;;;;;;;14.00;78.91;101755.50;5069356;28;20020;-73
2022/07/23 03:58:51;;;;;;;4.93;3.08;;;;;;;14.01;78.91;101749.38;5068484;28;20036;-73
2022/07/23 04:01:17;;;;;;;5.60;3.20;;;;;;;13.99;79.28;101753.78;5062292;28;20032;-73
2022/07/23 04:03:42;;;;;;;6.18;3.05;;;;;;;13.96;79.39;101755.56;5063231;28;20115;-73
2022/07/23 04:06:08;;;;;;;6.47;2.90;;;;;;;13.93;79.22;101755.66;5061619;28;20037;-73
2022/07/23 04:08:33;;;;;;;4.45;3.10;;;;;;;13.93;79.23;101760.03;5059709;28;20020;-73
2022/07/23 04:10:58;;;;;;;3.88;2.80;;;;;;;13.92;79.25;101758.31;5063350;28;20035;-73
2022/07/23 04:13:23;;;;;;;4.00;3.10;;;;;;;13.92;78.99;101758.31;5057327;28;20183;-73
2022/07/23 04:15:50;;;;;;;4.07;2.88;;;;;;;13.92;79.18;101755.69;5060463;28;20115;-73
2022/07/23 04:18:21;;;;;;;4.93;3.30;;;;;;;13.92;79.77;101755.69;5056179;28;20095;-73
2022/07/23 04:20:47;;;;;;;4.00;3.10;;;;;;;13.93;79.30;101760.88;5059190;28;20543;-72
2022/07/23 04:23:12;;;;;;;5.05;3.45;;;;;;;13.94;79.37;101759.16;5059430;28;20108;-72
2022/07/23 04:25:37;;;;;;;4.65;3.55;;;;;;;13.94;79.56;101757.38;5060456;28;20094;-73
2022/07/23 04:28:03;;;;;;;5.32;3.53;;;;;;;13.96;79.69;101762.59;5056806;28;20029;-73
2022/07/23 04:30:28;;;;;;;5.75;3.53;;;;;;;13.97;79.59;101766.91;5055008;28;20029;-72
2022/07/23 04:32:53;;;;;;;5.05;3.80;;;;;;;13.97;79.43;101766.91;5058064;28;20034;-73
2022/07/23 04:35:19;;;;;;;5.40;3.90;;;;;;;13.96;79.65;101773.03;5056323;28;20468;-72
2022/07/23 04:37:44;;;;;;;5.78;3.58;;;;;;;13.96;79.81;101776.50;5067174;28;20043;-73
2022/07/23 04:40:11;;;;;;;4.78;3.42;;;;;;;13.97;79.80;101777.38;5061515;28;20032;-73
2022/07/23 04:42:36;;;;;;;8.98;3.78;;;;;;;13.99;79.93;101780.81;5058898;28;20091;-72
2022/07/23 04:45:03;;;;;;;4.60;3.70;;;;;;;14.01;80.08;101783.38;5061157;28;20021;-73
2022/07/23 04:47:29;;;;;;;4.78;3.30;;;;;;;14.03;79.97;101785.06;5063684;28;20108;-73
2022/07/23 04:49:54;;;;;;;5.38;3.88;;;;;;;14.05;80.11;101780.66;5057784;28;20116;-73
2022/07/23 04:52:19;;;;;;;4.68;3.45;;;;;;;14.08;79.93;101782.34;5053751;28;20035;-73
2022/07/23 04:54:45;;;;;;;5.68;3.63;;;;;;;14.10;79.99;101788.38;5063151;28;20067;-72
2022/07/23 04:57:10;;;;;;;4.30;3.60;;;;;;;14.14;80.64;101794.41;5057274;28;20549;-73
2022/07/23 04:59:35;;;;;;;6.55;3.83;;;;;;;14.18;79.91;101791.66;5060909;28;20028;-72
2022/07/23 05:02:01;;;;;;;5.30;3.53;;;;;;;14.20;79.82;101786.38;5058725;28;20033;-72
2022/07/23 05:04:26;;;;;;;5.45;4.03;;;;;;;14.21;80.07;101788.09;5058245;28;20333;-73
2022/07/23 05:06:51;;;;;;;5.70;3.90;;;;;;;14.24;79.95;101790.66;5060686;28;20035;-73
2022/07/23 05:09:16;;;;;;;5.90;4.07;;;;;;;14.26;80.05;101794.09;5057843;28;20365;-73
2022/07/23 05:11:42;;;;;;;5.20;3.78;;;;;;;14.30;80.41;101797.47;5064252;28;20056;-72
2022/07/23 05:14:07;;;;;;;6.38;4.70;;;;;;;14.32;80.48;101799.19;5058987;28;20542;-73
2022/07/23 05:16:32;;;;;;;5.03;4.13;;;;;;;14.35;80.47;101798.22;5059845;28;20048;-73
2022/07/23 05:18:57;;;;;;;6.57;4.63;;;;;;;14.38;80.30;101803.38;5062005;28;20434;-73
2022/07/23 05:21:23;;;;;;;4.47;4.03;;;;;;;14.40;80.31;101802.44;5065210;28;20028;-73
2022/07/23 05:23:48;;;;;;;6.47;4.30;;;;;;;14.41;80.49;101806.78;5065509;28;20483;-72
2022/07/23 05:26:13;;;;;;;5.85;4.70;;;;;;;14.47;80.71;101799.66;5070737;28;20016;-73
2022/07/23 05:28:38;;;;;;;6.25;4.47;;;;;;;14.53;80.63;101804.72;5070641;28;20020;-73
2022/07/23 05:31:04;;;;;;;6.03;4.40;;;;;;;14.59;80.50;101811.56;5068117;28;20074;-73
2022/07/23 05:33:30;;;;;;;6.68;4.68;;;;;;;14.63;80.61;101814.06;5062224;28;20028;-73
2022/07/23 05:36:03;;;;;;;6.20;4.63;;;;;;;14.69;80.98;101810.44;5064814;28;20070;-73
2022/07/23 05:38:29;;;;;;;6.07;4.60;;;;;;;14.75;81.02;101812.03;5068644;28;20033;-73
2022/07/23 05:40:54;;;;;;;6.45;4.38;;;;;;;14.79;81.26;101813.66;5068436;28;20132;-72
2022/07/23 05:43:20;;;;;;;5.80;4.60;;;;;;;14.81;81.40;101814.50;5068271;28;20105;-73
2022/07/23 05:45:45;;;;;;;6.40;4.32;;;;;;;14.86;81.55;101809.97;5066835;28;20491;-72
2022/07/23 05:48:10;;;;;;;5.15;4.50;;;;;;;14.88;81.24;101813.41;5072321;28;20024;-73
2022/07/23 05:50:35;;;;;;;6.55;4.88;;;;;;;14.91;81.45;101810.69;5064876;28;20478;-73
2022/07/23 05:53:01;;;;;;;5.68;4.47;;;;;;;14.94;81.10;101825.50;5067211;28;20024;-72
2022/07/23 05:55:28;;;;;;;5.72;4.63;;;;;;;14.97;81.29;101818.41;5069622;28;20391;-72
2022/07/23 05:57:55;;;;;;;6.75;4.47;;;;;;;15.01;81.35;101819.16;5050689;28;20036;-73
2022/07/23 06:00:20;;;;;;;6.13;4.57;;;;;;;15.06;81.16;101827.75;5065010;28;20039;-73
2022/07/23 06:02:45;;;;;;;5.68;4.30;;;;;;;15.10;81.06;101834.63;5067231;28;20016;-73
2022/07/23 06:05:11;;;;;;;5.95;4.15;;;;;;;15.17;80.60;101830.06;5069685;28;20021;-72
2022/07/23 06:07:36;;;;;;;5.53;3.92;;;;;;;15.24;80.25;101836.84;5072091;28;20104;-73
2022/07/23 06:10:03;;;;;;;6.00;4.20;;;;;;;15.31;80.46;101835.75;5071919;28;20032;-73
2022/07/23 06:12:29;;;;;;;4.95;3.95;;;;;;;15.38;80.74;101832.94;5069156;28;20034;-73
2022/07/23 06:14:54;;;;;;;5.60;4.10;;;;;;;15.44;80.77;101832.75;5067268;28;20028;-73
2022/07/23 06:17:19;;;;;;;6.43;3.90;;;;;;;15.49;80.48;101841.34;5072590;28;20098;-73
2022/07/23 06:19:44;;;;;;;7.18;4.20;;;;;;;15.54;79.49;101841.22;5066085;28;20499;-72
2022/07/23 06:22:10;;;;;;;6.28;4.15;;;;;;;15.60;79.60;101841.88;5047116;28;20027;-72
2022/07/23 06:24:35;;;;;;;5.95;4.05;;;;;;;15.67;79.27;101845.16;5056116;28;20036;-73
2022/07/23 06:27:00;;;;;;;7.53;3.65;;;;;;;15.74;78.52;101845.81;5059527;28;20044;-73
2022/07/23 06:29:26;;;;;;;4.72;3.85;;;;;;;15.75;78.52;101837.94;5057153;28;20028;-72
2022/07/23 06:31:51;;;;;;;4.70;3.63;;;;;;;15.75;78.47;101837.94;5061959;28;20115;-72
2022/07/23 06:34:16;;;;;;;5.03;3.75;;;;;;;15.75;79.07;101830.06;5059488;28;20059;-73
2022/07/23 06:36:41;;;;;;;5.80;4.05;;;;;;;15.75;78.74;101837.06;5067039;28;20029;-73
2022/07/23 06:39:07;;;;;;;5.07;3.58;;;;;;;15.75;78.14;101839.69;5066846;28;20051;-73
2022/07/23 06:41:32;;;;;;;5.25;3.88;;;;;;;15.81;78.14;101843.88;5066433;28;20056;-73
2022/07/23 06:43:57;;;;;;;4.90;3.65;;;;;;;15.86;76.91;101852.50;5064233;28;20476;-73
2022/07/23 06:46:23;;;;;;;5.00;3.47;;;;;;;15.94;77.83;101855.75;5062171;28;20028;-73
2022/07/23 06:48:48;;;;;;;4.50;3.60;;;;;;;15.99;77.66;101853.81;5059576;28;20024;-73
2022/07/23 06:51:13;;;;;;;6.43;3.97;;;;;;;16.04;76.77;101848.44;5060384;28;20029;-73
2022/07/23 06:53:38;;;;;;;5.47;4.30;;;;;;;16.11;77.50;101857.81;5043850;28;20036;-74
2022/07/23 06:56:04;;;;;;;7.75;4.10;;;;;;;16.18;76.82;101856.72;5062152;28;20475;-73
2022/07/23 06:58:29;;;;;;;5.50;4.00;;;;;;;16.24;77.17;101851.22;5065506;28;20029;-73
2022/07/23 07:00:56;;;;;;;5.28;3.70;;;;;;;16.30;76.62;101851.94;5062357;28;20029;-73
2022/07/23 07:03:22;;;;;;;6.82;3.78;;;;;;;16.37;77.09;101850.84;5060914;28;20028;-73
2022/07/23 07:05:47;;;;;;;7.05;4.05;;;;;;;16.43;74.91;101860.28;5058143;28;20036;-73
2022/07/23 07:08:12;;;;;;;4.70;3.50;;;;;;;16.46;75.58;101854.91;5061374;28;20170;-73
2022/07/23 07:10:38;;;;;;;5.30;3.63;;;;;;;16.48;75.16;101853.94;5061170;28;20060;-73
2022/07/23 07:13:03;;;;;;;5.68;3.85;;;;;;;16.53;74.79;101864.28;5058413;28;20028;-73
2022/07/23 07:15:28;;;;;;;5.75;4.10;;;;;;;16.57;74.50;101862.44;5059355;28;20116;-73
2022/07/23 07:17:54;;;;;;;4.85;3.83;;;;;;;16.61;75.29;101864.03;5062121;28;20033;-73
2022/07/23 07:20:19;;;;;;;5.43;3.95;;;;;;;16.64;74.00;101854.28;5057550;28;20383;-73
2022/07/23 07:22:44;;;;;;;4.55;3.40;;;;;;;16.69;74.99;101857.59;5056185;28;20077;-73
2022/07/23 07:25:10;;;;;;;4.60;3.17;;;;;;;16.77;73.83;101849.44;5043747;28;20039;-73
2022/07/23 07:27:35;;;;;;;4.50;3.38;;;;;;;16.84;73.25;101850.94;5043327;28;20118;-73
2022/07/23 07:30:01;;;;;;;6.07;3.22;;;;;;;16.91;72.93;101848.94;5056524;28;20029;-73
2022/07/23 07:32:26;;;;;;;6.20;3.00;;;;;;;16.94;72.96;101850.59;5060509;28;20511;-73
2022/07/23 07:34:51;;;;;;;4.75;3.20;;;;;;;16.98;73.24;101852.22;5038611;28;20087;-73
2022/07/23 07:37:16;;;;;;;4.95;3.33;;;;;;;17.01;70.89;101852.13;5060545;28;20372;-72
2022/07/23 07:39:42;;;;;;;4.50;2.90;;;;;;;17.02;70.77;101843.31;5056911;28;20028;-73
2022/07/23 07:42:07;;;;;;;4.35;2.83;;;;;;;17.03;69.84;101854.69;5054354;28;20109;-73
2022/07/23 07:44:32;;;;;;;3.20;2.60;;;;;;;17.07;71.05;101859.81;5053172;28;20116;-74
2022/07/23 07:46:58;;;;;;;5.00;2.85;;;;;;;17.12;69.76;101870.97;5056131;28;20032;-73
2022/07/23 07:49:23;;;;;;;3.60;2.55;;;;;;;17.15;68.39;101870.03;5060016;28;20518;-73
2022/07/23 07:51:49;;;;;;;4.18;2.72;;;;;;;17.17;68.91;101869.97;5056852;28;20028;-73
2022/07/23 07:54:14;;;;;;;4.38;2.80;;;;;;;17.21;69.00;101866.31;5056967;28;21042;-73
2022/07/23 07:56:39;;;;;;;4.35;3.00;;;;;;;17.28;69.88;101870.41;5061010;28;20025;-73
2022/07/23 07:59:05;;;;;;;5.15;2.80;;;;;;;17.32;69.69;101865.91;5059137;28;21262;-73
2022/07/23 08:01:31;;;;;;;3.38;2.45;;;;;;;17.36;67.24;101873.63;5054572;28;20028;-72
2022/07/23 08:03:56;;;;;;;4.63;2.95;;;;;;;17.41;68.74;101876.06;5054720;28;20460;-73
2022/07/23 08:06:21;;;;;;;5.03;2.88;;;;;;;17.43;67.09;101872.47;5055929;28;20040;-73
2022/07/23 08:08:47;;;;;;;4.32;2.97;;;;;;;17.45;66.52;101875.88;5056522;28;20037;-73
2022/07/23 08:11:13;;;;;;;4.50;2.50;;;;;;;17.45;66.37;101873.25;5055600;28;20391;-73
2022/07/23 08:13:38;;;;;;;3.50;2.30;;;;;;;17.51;66.86;101876.59;5055164;28;20044;-73
2022/07/23 08:16:04;;;;;;;6.70;2.50;;;;;;;17.52;65.52;101878.28;5037927;28;20097;-73
2022/07/23 08:18:29;;;;;;;3.22;2.50;;;;;;;17.57;66.41;101876.34;5059503;28;20703;-73
2022/07/23 08:20:54;;;;;;;3.13;2.40;;;;;;;17.59;65.69;101885.06;5056994;28;20107;-73
2022/07/23 08:23:20;;;;;;;3.53;2.67;;;;;;;17.65;68.77;101879.53;5057456;28;20478;-73
2022/07/23 08:25:46;;;;;;;4.63;2.95;;;;;;;17.69;68.49;101875.88;5055257;28;20108;-73
2022/07/23 08:28:13;;;;;;;4.32;2.60;;;;;;;17.74;69.13;101879.19;5054821;28;20027;-73
2022/07/23 08:30:39;;;;;;;5.70;2.97;;;;;;;17.79;67.12;101881.63;5057175;28;20043;-72
2022/07/23 08:33:07;;;;;;;4.85;2.75;;;;;;;17.87;67.08;101886.59;5057121;28;20574;-73
2022/07/23 08:35:34;;;;;;;4.13;2.67;;;;;;;17.90;67.06;101879.41;5056187;28;20068;-73
2022/07/23 08:38:02;;;;;;;3.38;2.47;;;;;;;17.94;64.36;101885.41;5060450;28;20042;-73
2022/07/23 08:40:30;;;;;;;4.30;2.70;;;;;;;17.95;64.09;101881.84;5053866;28;20108;-73
2022/07/23 08:42:56;;;;;;;5.35;3.30;;;;;;;17.99;66.17;101890.53;5056389;28;20039;-73
2022/07/23 08:45:23;;;;;;;4.13;2.55;;;;;;;17.99;63.48;101899.28;5052749;28;20032;-73
2022/07/23 08:47:58;;;;;;;4.90;2.40;;;;;;;18.02;64.79;101896.53;5053246;28;20371;-73
2022/07/23 08:50:24;;;;;;;3.97;2.42;;;;;;;18.06;64.25;101899.88;5051412;28;20112;-74
2022/07/23 08:52:50;;;;;;;4.13;2.33;;;;;;;18.10;63.93;101905.91;5056452;28;20037;-73
2022/07/23 08:55:17;;;;;;;3.63;2.60;;;;;;;18.14;62.51;101907.47;5055856;28;20507;-74
2022/07/23 08:57:43;;;;;;;3.75;2.55;;;;;;;18.19;63.79;101900.25;5053870;28;20060;-74
2022/07/23 09:00:09;;;;;;;4.30;2.75;;;;;;;18.26;63.87;101901.72;5057013;28;20082;-73
2022/07/23 09:02:45;;;;;;;3.25;2.17;;;;;;;18.39;64.98;101902.06;5058277;28;20028;-73
2022/07/23 09:05:12;;;;;;;3.67;2.67;;;;;;;18.46;64.33;101892.97;5053326;28;20048;-72
2022/07/23 09:07:58;;;;;;;4.45;2.40;;;;;;;18.50;63.16;101901.59;5057211;28;20060;-73
2022/07/23 09:10:23;;;;;;;3.58;2.15;;;;;;;18.50;64.99;101899.84;5051854;28;20128;-73
2022/07/23 09:12:48;;;;;;;3.03;2.25;;;;;;;18.50;64.54;101898.97;5055841;28;20115;-73
2022/07/23 09:15:13;;;;;;;3.80;2.22;;;;;;;18.54;63.39;101899.69;5053793;28;20460;-73
2022/07/23 09:17:42;;;;;;;3.75;2.13;;;;;;;18.58;63.08;101896.88;5039596;28;20025;-73
2022/07/23 09:20:16;;;;;;;2.42;2.13;;;;;;;18.65;63.56;101898.31;5053708;28;20036;-73
2022/07/23 09:22:47;;;;;;;4.75;2.13;;;;;;;18.72;60.54;101900.69;5055417;28;20038;-73
2022/07/23 09:25:17;;;;;;;3.35;2.20;;;;;;;18.78;60.59;101897.81;5059193;28;20036;-73
2022/07/23 09:27:55;;;;;;;3.63;1.90;;;;;;;18.78;61.32;101888.09;5057038;28;20748;-73
2022/07/23 09:30:22;;;;;;;3.88;2.13;;;;;;;18.82;61.26;101894.09;5055745;28;20082;-73
2022/07/23 09:33:07;;;;;;;2.63;2.00;;;;;;;18.88;61.64;101887.69;5055428;28;20158;-73
2022/07/23 09:35:55;;;;;;;2.55;1.80;;;;;;;18.88;61.25;101883.28;5055452;28;20142;-73
2022/07/23 09:38:23;;;;;;;2.55;1.90;;;;;;;18.95;62.31;101884.78;5057193;28;20017;-72
2022/07/23 09:41:08;;;;;;;4.00;2.20;;;;;;;19.02;61.54;101879.19;5055676;28;20076;-73
2022/07/23 09:43:33;;;;;;;4.30;2.10;;;;;;;19.07;60.73;101887.78;5058296;28;20036;-73
2022/07/23 09:46:17;;;;;;;3.00;1.88;;;;;;;19.14;62.64;101888.34;5060871;28;20135;-73
2022/07/23 09:48:42;;;;;;;3.50;1.95;;;;;;;19.21;61.70;101880.09;5061371;28;20098;-74
2022/07/23 09:51:07;;;;;;;2.78;1.60;;;;;;;19.30;62.70;101889.34;5059412;28;20040;-73
2022/07/23 09:53:32;;;;;;;4.72;2.30;;;;;;;19.34;60.21;101890.06;5060993;28;20029;-73
2022/07/23 09:56:00;;;;;;;4.78;2.20;;;;;;;19.38;60.04;101891.63;5062547;28;20064;-73
2022/07/23 09:58:28;;;;;;;3.35;2.35;;;;;;;19.44;61.27;101895.78;5047292;28;20036;-73
2022/07/23 10:00:55;;;;;;;3.33;2.25;;;;;;;19.47;60.82;101891.19;5058091;28;20056;-73
2022/07/23 10:03:20;;;;;;;3.67;2.03;;;;;;;19.53;60.17;101900.63;5061219;28;20572;-73
2022/07/23 10:05:47;;;;;;;4.03;2.20;;;;;;;19.59;60.48;101894.22;5066394;28;20032;-73
2022/07/23 10:08:16;;;;;;;3.35;2.22;;;;;;;19.66;58.87;101882.41;5064471;28;20487;-73
2022/07/23 10:10:41;;;;;;;3.03;2.00;;;;;;;19.73;57.16;101886.50;5059008;28;20036;-73
2022/07/23 10:13:26;;;;;;;2.88;2.03;;;;;;;19.79;57.78;101891.47;5062389;28;20036;-74
2022/07/23 10:15:52;;;;;;;3.80;1.98;;;;;;;19.82;56.23;101890.47;5057739;28;20040;-74
2022/07/23 10:18:17;;;;;;;3.13;2.00;;;;;;;19.79;55.53;101890.63;5064974;28;20032;-74
2022/07/23 10:20:43;;;;;;;2.45;1.85;;;;;;;19.76;55.67;101896.91;5064355;28;20598;-73
2022/07/23 10:23:18;;;;;;;3.35;2.03;;;;;;;19.74;57.08;101884.69;5064042;28;20294;-74
2022/07/23 10:26:19;;;;;;;3.95;2.53;;;;;;;19.73;58.18;101883.84;5061850;28;20032;-73
2022/07/23 10:29:00;;;;;;;3.30;2.20;;;;;;;19.71;58.40;101890.97;5061385;28;20039;-75
2022/07/23 10:31:35;;;;;;;3.45;2.33;;;;;;;19.69;56.33;101895.47;5045686;28;20353;-75
2022/07/23 10:34:49;;;;;;;3.00;2.15;;;;;;;19.70;58.51;101887.50;5065734;28;20487;-75
2022/07/23 10:37:30;;;;;;;3.35;2.40;;;;;;;19.71;58.40;101883.06;4984146;28;20130;-75
2022/07/23 10:40:21;;;;;;;4.55;2.30;;;;;;;19.73;57.78;101883.84;5060403;28;21270;-75
2022/07/23 10:42:47;;;;;;;3.53;2.50;;;;;;;19.77;55.77;101887.19;5043518;28;20051;-76
2022/07/23 10:45:36;;;;;;;3.65;2.67;;;;;;;19.78;57.56;101889.78;5058927;28;20033;-75
2022/07/23 10:48:13;;;;;;;4.60;2.53;;;;;;;19.82;58.24;101886.03;5059485;28;21008;-75
2022/07/23 10:50:39;;;;;;;3.50;2.20;;;;;;;19.85;56.19;101891.16;5058528;28;21725;-75
2022/07/23 10:53:15;;;;;;;3.45;2.40;;;;;;;19.86;54.24;101889.41;5054379;28;20472;-77
2022/07/23 10:55:52;;;;;;;3.42;2.00;;;;;;;19.88;54.67;101889.34;5057376;28;20079;-74
2022/07/23 10:58:23;;;;;;;2.30;2.03;;;;;;;19.92;55.48;101888.28;5054645;28;20090;-76
2022/07/23 11:00:49;;;;;;;3.17;2.10;;;;;;;19.95;55.13;101890.78;5042778;28;20040;-75
2022/07/23 11:03:38;;;;;;;4.80;2.30;;;;;;;20.01;56.59;101890.44;5064778;28;20067;-75
2022/07/23 11:06:05;;;;;;;3.35;2.10;;;;;;;20.08;55.28;101897.16;5066121;28;20029;-76
2022/07/23 11:08:30;;;;;;;2.88;1.98;;;;;;;20.10;53.76;101892.66;5063086;28;20067;-74
2022/07/23 11:11:02;;;;;;;2.22;1.92;;;;;;;20.17;55.11;101891.41;5060974;28;20032;-73
2022/07/23 11:13:29;;;;;;;2.60;2.10;;;;;;;20.21;54.51;101896.53;5063700;28;20500;-74
2022/07/23 11:16:00;;;;;;;3.50;1.98;;;;;;;20.26;55.32;101891.91;5064222;28;20360;-74
2022/07/23 11:18:44;;;;;;;5.95;2.30;;;;;;;20.31;57.42;101903.09;5054106;28;20036;-74
2022/07/23 11:24:02;;;;;;;3.58;2.25;;;;;;;20.29;54.82;101892.59;5058419;28;20433;-75
2022/07/23 11:26:41;;;;;;;2.75;1.98;;;;;;;20.31;54.38;101893.38;5065194;28;20028;-75